sensor_id;sensor_type;location;lat;lon;timestamp;P1;durP1;ratioP1;P2;durP2;ratioP2
54372;SDS011;40271;48.798;10.178;2022-12-07T00:01:42;12.30;;;5.05;;
54372;SDS011;40271;48.798;10.178;2022-12-07T00:04:10;13.77;;;5.50;;
54372;SDS011;40271;48.798;10.178;2022-12-07T00:06:38;15.20;;;5.85;;
54372;SDS011;40271;48.798;10.178;2022-12-07T00:09:05;12.60;;;5.85;;
54372;SDS011;40271;48.798;10.178;2022-12-07T00:11:31;12.88;;;5.40;;
54372;SDS011;40271;48.798;10.178;2022-12-07T00:14:00;10.57;;;5.22;;
54372;SDS011;40271;48.798;10.178;2022-12-07T00:16:27;10.30;;;4.82;;
54372;SDS011;40271;48.798;10.178;2022-12-07T00:18:54;11.90;;;6.25;;
54372;SDS011;40271;48.798;10.178;2022-12-07T00:21:21;11.82;;;5.55;;
54372;SDS011;40271;48.798;10.178;2022-12-07T00:23:48;12.65;;;5.55;;
54372;SDS011;40271;48.798;10.178;2022-12-07T00:26:16;10.20;;;4.93;;
54372;SDS011;40271;48.798;10.178;2022-12-07T00:28:46;11.38;;;5.03;;
54372;SDS011;40271;48.798;10.178;2022-12-07T00:31:12;8.88;;;4.88;;
54372;SDS011;40271;48.798;10.178;2022-12-07T00:33:38;11.10;;;5.03;;
54372;SDS011;40271;48.798;10.178;2022-12-07T00:36:08;12.02;;;5.15;;
54372;SDS011;40271;48.798;10.178;2022-12-07T00:38:35;13.80;;;5.05;;
54372;SDS011;40271;48.798;10.178;2022-12-07T00:41:03;10.90;;;4.82;;
54372;SDS011;40271;48.798;10.178;2022-12-07T00:43:29;9.05;;;4.90;;
54372;SDS011;40271;48.798;10.178;2022-12-07T00:45:56;10.82;;;4.80;;
54372;SDS011;40271;48.798;10.178;2022-12-07T00:48:22;10.55;;;5.53;;
54372;SDS011;40271;48.798;10.178;2022-12-07T00:50:48;9.13;;;4.80;;
54372;SDS011;40271;48.798;10.178;2022-12-07T00:53:14;10.75;;;4.82;;
54372;SDS011;40271;48.798;10.178;2022-12-07T00:55:41;9.75;;;4.95;;
54372;SDS011;40271;48.798;10.178;2022-12-07T00:58:07;10.63;;;5.47;;
54372;SDS011;40271;48.798;10.178;2022-12-07T01:00:35;11.77;;;5.38;;
54372;SDS011;40271;48.798;10.178;2022-12-07T01:03:01;11.90;;;4.88;;
54372;SDS011;40271;48.798;10.178;2022-12-07T01:05:27;12.95;;;5.88;;
54372;SDS011;40271;48.798;10.178;2022-12-07T01:07:53;11.40;;;4.82;;
54372;SDS011;40271;48.798;10.178;2022-12-07T01:10:19;10.48;;;5.20;;
54372;SDS011;40271;48.798;10.178;2022-12-07T01:12:45;8.00;;;4.55;;
54372;SDS011;40271;48.798;10.178;2022-12-07T01:15:11;8.27;;;5.18;;
54372;SDS011;40271;48.798;10.178;2022-12-07T01:17:37;9.60;;;4.93;;
54372;SDS011;40271;48.798;10.178;2022-12-07T01:20:03;10.50;;;4.82;;
54372;SDS011;40271;48.798;10.178;2022-12-07T01:22:29;9.65;;;4.97;;
54372;SDS011;40271;48.798;10.178;2022-12-07T01:24:55;12.93;;;5.45;;
54372;SDS011;40271;48.798;10.178;2022-12-07T01:27:21;11.48;;;5.10;;
54372;SDS011;40271;48.798;10.178;2022-12-07T01:29:47;9.95;;;5.07;;
54372;SDS011;40271;48.798;10.178;2022-12-07T01:32:13;12.07;;;5.88;;
54372;SDS011;40271;48.798;10.178;2022-12-07T01:34:39;12.35;;;5.35;;
54372;SDS011;40271;48.798;10.178;2022-12-07T01:37:05;10.77;;;5.28;;
54372;SDS011;40271;48.798;10.178;2022-12-07T01:39:31;11.90;;;5.53;;
54372;SDS011;40271;48.798;10.178;2022-12-07T01:41:57;11.52;;;5.53;;
54372;SDS011;40271;48.798;10.178;2022-12-07T01:44:29;11.50;;;5.75;;
54372;SDS011;40271;48.798;10.178;2022-12-07T01:46:57;11.77;;;5.80;;
54372;SDS011;40271;48.798;10.178;2022-12-07T01:51:51;16.10;;;6.57;;
54372;SDS011;40271;48.798;10.178;2022-12-07T01:54:18;13.55;;;6.80;;
54372;SDS011;40271;48.798;10.178;2022-12-07T01:56:48;13.55;;;6.50;;
54372;SDS011;40271;48.798;10.178;2022-12-07T01:59:16;13.80;;;6.13;;
54372;SDS011;40271;48.798;10.178;2022-12-07T02:01:43;13.15;;;6.53;;
54372;SDS011;40271;48.798;10.178;2022-12-07T02:04:09;14.25;;;7.53;;
54372;SDS011;40271;48.798;10.178;2022-12-07T02:06:36;14.35;;;6.82;;
54372;SDS011;40271;48.798;10.178;2022-12-07T02:09:02;14.35;;;6.72;;
54372;SDS011;40271;48.798;10.178;2022-12-07T02:11:28;14.07;;;6.13;;
54372;SDS011;40271;48.798;10.178;2022-12-07T02:13:54;13.82;;;6.30;;
54372;SDS011;40271;48.798;10.178;2022-12-07T02:28:56;12.15;;;5.75;;
54372;SDS011;40271;48.798;10.178;2022-12-07T02:31:30;10.90;;;5.15;;
54372;SDS011;40271;48.798;10.178;2022-12-07T02:34:32;12.50;;;5.65;;
54372;SDS011;40271;48.798;10.178;2022-12-07T02:36:51;12.82;;;5.47;;
54372;SDS011;40271;48.798;10.178;2022-12-07T02:39:54;12.85;;;5.82;;
54372;SDS011;40271;48.798;10.178;2022-12-07T02:42:15;11.40;;;5.30;;
54372;SDS011;40271;48.798;10.178;2022-12-07T02:44:42;12.73;;;6.25;;
54372;SDS011;40271;48.798;10.178;2022-12-07T02:47:10;10.95;;;5.53;;
54372;SDS011;40271;48.798;10.178;2022-12-07T02:49:38;11.73;;;5.07;;
54372;SDS011;40271;48.798;10.178;2022-12-07T02:52:04;12.77;;;5.18;;
54372;SDS011;40271;48.798;10.178;2022-12-07T02:54:31;12.48;;;5.97;;
54372;SDS011;40271;48.798;10.178;2022-12-07T02:57:24;11.65;;;5.88;;
54372;SDS011;40271;48.798;10.178;2022-12-07T03:12:42;14.05;;;5.32;;
54372;SDS011;40271;48.798;10.178;2022-12-07T03:15:11;9.68;;;5.25;;
54372;SDS011;40271;48.798;10.178;2022-12-07T03:17:38;9.38;;;5.10;;
54372;SDS011;40271;48.798;10.178;2022-12-07T03:20:08;11.63;;;6.35;;
54372;SDS011;40271;48.798;10.178;2022-12-07T03:22:36;11.63;;;5.63;;
54372;SDS011;40271;48.798;10.178;2022-12-07T03:25:04;11.05;;;4.80;;
54372;SDS011;40271;48.798;10.178;2022-12-07T03:27:33;11.30;;;5.68;;
54372;SDS011;40271;48.798;10.178;2022-12-07T03:30:04;12.25;;;5.50;;
54372;SDS011;40271;48.798;10.178;2022-12-07T03:32:49;12.88;;;5.60;;
54372;SDS011;40271;48.798;10.178;2022-12-07T03:37:50;10.10;;;5.13;;
54372;SDS011;40271;48.798;10.178;2022-12-07T03:42:42;12.73;;;5.82;;
54372;SDS011;40271;48.798;10.178;2022-12-07T03:45:08;10.40;;;5.65;;
54372;SDS011;40271;48.798;10.178;2022-12-07T03:47:49;12.50;;;5.80;;
54372;SDS011;40271;48.798;10.178;2022-12-07T03:52:52;13.02;;;6.22;;
54372;SDS011;40271;48.798;10.178;2022-12-07T03:55:22;14.80;;;6.30;;
54372;SDS011;40271;48.798;10.178;2022-12-07T03:57:51;14.38;;;5.28;;
54372;SDS011;40271;48.798;10.178;2022-12-07T04:00:18;12.65;;;5.95;;
54372;SDS011;40271;48.798;10.178;2022-12-07T04:02:44;12.75;;;6.10;;
54372;SDS011;40271;48.798;10.178;2022-12-07T04:05:11;10.77;;;5.53;;
54372;SDS011;40271;48.798;10.178;2022-12-07T04:07:37;10.18;;;5.18;;
54372;SDS011;40271;48.798;10.178;2022-12-07T04:10:03;11.35;;;5.10;;
54372;SDS011;40271;48.798;10.178;2022-12-07T04:12:30;12.88;;;5.40;;
54372;SDS011;40271;48.798;10.178;2022-12-07T04:14:56;13.40;;;5.93;;
54372;SDS011;40271;48.798;10.178;2022-12-07T04:17:22;11.63;;;5.13;;
54372;SDS011;40271;48.798;10.178;2022-12-07T04:19:48;10.25;;;5.25;;
54372;SDS011;40271;48.798;10.178;2022-12-07T04:22:14;9.85;;;4.95;;
54372;SDS011;40271;48.798;10.178;2022-12-07T04:24:40;9.15;;;4.80;;
54372;SDS011;40271;48.798;10.178;2022-12-07T04:27:06;10.00;;;5.38;;
54372;SDS011;40271;48.798;10.178;2022-12-07T04:29:32;12.15;;;6.13;;
54372;SDS011;40271;48.798;10.178;2022-12-07T04:31:58;10.75;;;5.25;;
54372;SDS011;40271;48.798;10.178;2022-12-07T04:34:24;10.23;;;4.82;;
54372;SDS011;40271;48.798;10.178;2022-12-07T04:36:50;11.88;;;4.93;;
54372;SDS011;40271;48.798;10.178;2022-12-07T04:41:51;10.85;;;5.15;;
54372;SDS011;40271;48.798;10.178;2022-12-07T04:44:17;9.93;;;5.32;;
54372;SDS011;40271;48.798;10.178;2022-12-07T04:46:43;12.20;;;5.55;;
54372;SDS011;40271;48.798;10.178;2022-12-07T04:49:10;13.77;;;6.10;;
54372;SDS011;40271;48.798;10.178;2022-12-07T04:51:36;12.52;;;5.97;;
54372;SDS011;40271;48.798;10.178;2022-12-07T04:54:02;16.60;;;7.57;;
54372;SDS011;40271;48.798;10.178;2022-12-07T04:56:29;32.45;;;12.05;;
54372;SDS011;40271;48.798;10.178;2022-12-07T04:58:55;21.40;;;10.60;;
54372;SDS011;40271;48.798;10.178;2022-12-07T05:01:21;12.30;;;5.55;;
54372;SDS011;40271;48.798;10.178;2022-12-07T05:03:47;14.30;;;6.80;;
54372;SDS011;40271;48.798;10.178;2022-12-07T05:06:13;11.55;;;5.70;;
54372;SDS011;40271;48.798;10.178;2022-12-07T05:08:40;13.45;;;5.93;;
54372;SDS011;40271;48.798;10.178;2022-12-07T05:11:07;13.88;;;8.00;;
54372;SDS011;40271;48.798;10.178;2022-12-07T05:13:33;13.80;;;7.80;;
54372;SDS011;40271;48.798;10.178;2022-12-07T05:15:59;13.38;;;7.20;;
54372;SDS011;40271;48.798;10.178;2022-12-07T05:18:25;14.02;;;7.35;;
54372;SDS011;40271;48.798;10.178;2022-12-07T05:20:51;12.68;;;6.68;;
54372;SDS011;40271;48.798;10.178;2022-12-07T05:23:17;14.13;;;5.85;;
54372;SDS011;40271;48.798;10.178;2022-12-07T05:25:45;12.63;;;5.82;;
54372;SDS011;40271;48.798;10.178;2022-12-07T05:28:11;12.98;;;5.57;;
54372;SDS011;40271;48.798;10.178;2022-12-07T05:30:37;11.77;;;5.50;;
54372;SDS011;40271;48.798;10.178;2022-12-07T05:33:03;11.65;;;5.18;;
54372;SDS011;40271;48.798;10.178;2022-12-07T05:35:30;8.60;;;4.93;;
54372;SDS011;40271;48.798;10.178;2022-12-07T05:37:56;10.30;;;4.45;;
54372;SDS011;40271;48.798;10.178;2022-12-07T05:40:23;9.00;;;4.43;;
54372;SDS011;40271;48.798;10.178;2022-12-07T05:42:49;8.50;;;4.07;;
54372;SDS011;40271;48.798;10.178;2022-12-07T05:45:15;8.95;;;4.38;;
54372;SDS011;40271;48.798;10.178;2022-12-07T05:47:41;8.60;;;4.13;;
54372;SDS011;40271;48.798;10.178;2022-12-07T05:50:07;10.43;;;4.40;;
54372;SDS011;40271;48.798;10.178;2022-12-07T05:52:33;10.82;;;4.90;;
54372;SDS011;40271;48.798;10.178;2022-12-07T05:54:59;10.93;;;4.90;;
54372;SDS011;40271;48.798;10.178;2022-12-07T05:57:25;9.20;;;5.00;;
54372;SDS011;40271;48.798;10.178;2022-12-07T05:59:51;10.70;;;5.07;;
54372;SDS011;40271;48.798;10.178;2022-12-07T06:02:17;13.30;;;6.50;;
54372;SDS011;40271;48.798;10.178;2022-12-07T06:04:44;9.90;;;4.55;;
54372;SDS011;40271;48.798;10.178;2022-12-07T06:07:11;9.15;;;4.18;;
54372;SDS011;40271;48.798;10.178;2022-12-07T06:09:37;8.10;;;4.28;;
54372;SDS011;40271;48.798;10.178;2022-12-07T06:12:04;11.55;;;4.75;;
54372;SDS011;40271;48.798;10.178;2022-12-07T06:14:49;8.70;;;3.75;;
54372;SDS011;40271;48.798;10.178;2022-12-07T06:17:15;8.32;;;4.20;;
54372;SDS011;40271;48.798;10.178;2022-12-07T06:19:41;10.63;;;5.15;;
54372;SDS011;40271;48.798;10.178;2022-12-07T06:22:08;14.25;;;4.00;;
54372;SDS011;40271;48.798;10.178;2022-12-07T06:24:35;13.68;;;6.72;;
54372;SDS011;40271;48.798;10.178;2022-12-07T06:27:01;12.07;;;6.40;;
54372;SDS011;40271;48.798;10.178;2022-12-07T06:29:27;9.85;;;5.65;;
54372;SDS011;40271;48.798;10.178;2022-12-07T06:31:53;8.55;;;4.45;;
54372;SDS011;40271;48.798;10.178;2022-12-07T06:34:20;9.38;;;4.32;;
54372;SDS011;40271;48.798;10.178;2022-12-07T06:36:48;9.10;;;4.28;;
54372;SDS011;40271;48.798;10.178;2022-12-07T06:39:17;9.93;;;4.28;;
54372;SDS011;40271;48.798;10.178;2022-12-07T06:41:43;10.38;;;5.15;;
54372;SDS011;40271;48.798;10.178;2022-12-07T06:44:09;11.35;;;4.95;;
54372;SDS011;40271;48.798;10.178;2022-12-07T06:46:35;10.02;;;5.10;;
54372;SDS011;40271;48.798;10.178;2022-12-07T06:49:01;15.32;;;6.28;;
54372;SDS011;40271;48.798;10.178;2022-12-07T06:51:27;16.67;;;7.18;;
54372;SDS011;40271;48.798;10.178;2022-12-07T06:53:53;17.20;;;7.95;;
54372;SDS011;40271;48.798;10.178;2022-12-07T06:56:19;18.33;;;7.68;;
54372;SDS011;40271;48.798;10.178;2022-12-07T06:58:45;19.65;;;8.93;;
54372;SDS011;40271;48.798;10.178;2022-12-07T07:01:12;20.73;;;7.95;;
54372;SDS011;40271;48.798;10.178;2022-12-07T07:03:38;20.65;;;8.15;;
54372;SDS011;40271;48.798;10.178;2022-12-07T07:06:05;22.95;;;8.73;;
54372;SDS011;40271;48.798;10.178;2022-12-07T07:08:32;21.15;;;8.63;;
54372;SDS011;40271;48.798;10.178;2022-12-07T07:10:58;20.23;;;8.23;;
54372;SDS011;40271;48.798;10.178;2022-12-07T07:13:24;20.67;;;9.05;;
54372;SDS011;40271;48.798;10.178;2022-12-07T07:15:50;23.55;;;9.15;;
54372;SDS011;40271;48.798;10.178;2022-12-07T07:18:16;17.83;;;7.75;;
54372;SDS011;40271;48.798;10.178;2022-12-07T07:20:42;17.20;;;7.70;;
54372;SDS011;40271;48.798;10.178;2022-12-07T07:23:08;20.58;;;7.78;;
54372;SDS011;40271;48.798;10.178;2022-12-07T07:25:34;17.05;;;7.30;;
54372;SDS011;40271;48.798;10.178;2022-12-07T07:28:00;19.17;;;6.88;;
54372;SDS011;40271;48.798;10.178;2022-12-07T07:30:26;21.75;;;7.63;;
54372;SDS011;40271;48.798;10.178;2022-12-07T07:32:59;16.40;;;6.70;;
54372;SDS011;40271;48.798;10.178;2022-12-07T07:35:26;19.90;;;7.65;;
54372;SDS011;40271;48.798;10.178;2022-12-07T07:37:52;17.90;;;7.70;;
54372;SDS011;40271;48.798;10.178;2022-12-07T07:40:18;16.73;;;7.57;;
54372;SDS011;40271;48.798;10.178;2022-12-07T07:42:46;16.17;;;7.07;;
54372;SDS011;40271;48.798;10.178;2022-12-07T07:45:13;17.25;;;7.88;;
54372;SDS011;40271;48.798;10.178;2022-12-07T07:47:39;29.92;;;8.65;;
54372;SDS011;40271;48.798;10.178;2022-12-07T07:50:05;17.25;;;6.85;;
54372;SDS011;40271;48.798;10.178;2022-12-07T07:52:31;14.90;;;6.43;;
54372;SDS011;40271;48.798;10.178;2022-12-07T07:54:57;17.83;;;8.07;;
54372;SDS011;40271;48.798;10.178;2022-12-07T07:57:23;15.88;;;6.63;;
54372;SDS011;40271;48.798;10.178;2022-12-07T07:59:49;13.82;;;6.05;;
54372;SDS011;40271;48.798;10.178;2022-12-07T08:02:16;14.05;;;6.18;;
54372;SDS011;40271;48.798;10.178;2022-12-07T08:04:42;13.75;;;6.03;;
54372;SDS011;40271;48.798;10.178;2022-12-07T08:07:08;12.52;;;5.82;;
54372;SDS011;40271;48.798;10.178;2022-12-07T08:09:34;11.38;;;4.80;;
54372;SDS011;40271;48.798;10.178;2022-12-07T08:12:00;11.43;;;5.47;;
54372;SDS011;40271;48.798;10.178;2022-12-07T08:14:26;12.50;;;5.55;;
54372;SDS011;40271;48.798;10.178;2022-12-07T08:16:53;14.55;;;6.53;;
54372;SDS011;40271;48.798;10.178;2022-12-07T08:19:20;12.38;;;5.22;;
54372;SDS011;40271;48.798;10.178;2022-12-07T08:21:46;9.73;;;5.43;;
54372;SDS011;40271;48.798;10.178;2022-12-07T08:24:12;11.80;;;5.00;;
54372;SDS011;40271;48.798;10.178;2022-12-07T08:26:38;10.23;;;5.25;;
54372;SDS011;40271;48.798;10.178;2022-12-07T08:29:04;10.20;;;5.32;;
54372;SDS011;40271;48.798;10.178;2022-12-07T08:31:30;10.32;;;4.10;;
54372;SDS011;40271;48.798;10.178;2022-12-07T08:33:56;8.43;;;4.32;;
54372;SDS011;40271;48.798;10.178;2022-12-07T08:36:23;9.85;;;4.65;;
54372;SDS011;40271;48.798;10.178;2022-12-07T08:38:49;10.43;;;3.97;;
54372;SDS011;40271;48.798;10.178;2022-12-07T08:41:15;8.38;;;3.88;;
54372;SDS011;40271;48.798;10.178;2022-12-07T08:43:41;7.53;;;3.75;;
54372;SDS011;40271;48.798;10.178;2022-12-07T08:48:44;6.57;;;3.20;;
54372;SDS011;40271;48.798;10.178;2022-12-07T08:51:11;6.05;;;3.40;;
54372;SDS011;40271;48.798;10.178;2022-12-07T08:53:38;7.15;;;3.28;;
54372;SDS011;40271;48.798;10.178;2022-12-07T08:56:05;7.68;;;3.35;;
54372;SDS011;40271;48.798;10.178;2022-12-07T08:58:32;5.60;;;2.97;;
54372;SDS011;40271;48.798;10.178;2022-12-07T09:00:58;6.30;;;2.65;;
54372;SDS011;40271;48.798;10.178;2022-12-07T09:03:24;6.03;;;2.95;;
54372;SDS011;40271;48.798;10.178;2022-12-07T09:05:50;5.63;;;3.13;;
54372;SDS011;40271;48.798;10.178;2022-12-07T09:08:16;4.22;;;2.88;;
54372;SDS011;40271;48.798;10.178;2022-12-07T09:10:42;4.35;;;2.50;;
54372;SDS011;40271;48.798;10.178;2022-12-07T09:13:08;5.97;;;3.05;;
54372;SDS011;40271;48.798;10.178;2022-12-07T09:15:34;4.18;;;2.42;;
54372;SDS011;40271;48.798;10.178;2022-12-07T09:18:00;6.88;;;2.78;;
54372;SDS011;40271;48.798;10.178;2022-12-07T09:20:26;5.60;;;2.75;;
54372;SDS011;40271;48.798;10.178;2022-12-07T09:22:52;4.80;;;2.60;;
54372;SDS011;40271;48.798;10.178;2022-12-07T09:25:18;5.97;;;2.80;;
54372;SDS011;40271;48.798;10.178;2022-12-07T09:27:44;5.65;;;2.85;;
54372;SDS011;40271;48.798;10.178;2022-12-07T09:30:10;4.22;;;2.60;;
54372;SDS011;40271;48.798;10.178;2022-12-07T09:32:36;5.43;;;2.78;;
54372;SDS011;40271;48.798;10.178;2022-12-07T09:35:02;5.35;;;2.40;;
54372;SDS011;40271;48.798;10.178;2022-12-07T09:37:28;5.75;;;2.90;;
54372;SDS011;40271;48.798;10.178;2022-12-07T09:39:56;4.68;;;2.65;;
54372;SDS011;40271;48.798;10.178;2022-12-07T09:42:27;5.82;;;2.55;;
54372;SDS011;40271;48.798;10.178;2022-12-07T09:44:53;6.15;;;2.65;;
54372;SDS011;40271;48.798;10.178;2022-12-07T09:47:19;4.30;;;2.40;;
54372;SDS011;40271;48.798;10.178;2022-12-07T09:49:45;4.75;;;2.47;;
54372;SDS011;40271;48.798;10.178;2022-12-07T09:52:19;6.13;;;2.72;;
54372;SDS011;40271;48.798;10.178;2022-12-07T09:54:47;3.92;;;2.55;;
54372;SDS011;40271;48.798;10.178;2022-12-07T09:57:14;5.10;;;2.75;;
54372;SDS011;40271;48.798;10.178;2022-12-07T09:59:40;4.82;;;2.70;;
54372;SDS011;40271;48.798;10.178;2022-12-07T10:04:48;4.10;;;2.60;;
54372;SDS011;40271;48.798;10.178;2022-12-07T10:07:14;5.28;;;2.67;;
54372;SDS011;40271;48.798;10.178;2022-12-07T10:09:40;6.00;;;3.13;;
54372;SDS011;40271;48.798;10.178;2022-12-07T10:12:09;6.00;;;2.63;;
54372;SDS011;40271;48.798;10.178;2022-12-07T10:14:40;6.47;;;2.90;;
54372;SDS011;40271;48.798;10.178;2022-12-07T10:19:51;4.90;;;2.72;;
54372;SDS011;40271;48.798;10.178;2022-12-07T10:22:17;4.70;;;2.38;;
54372;SDS011;40271;48.798;10.178;2022-12-07T10:24:43;4.05;;;2.35;;
54372;SDS011;40271;48.798;10.178;2022-12-07T10:27:19;4.93;;;2.72;;
54372;SDS011;40271;48.798;10.178;2022-12-07T10:29:50;5.40;;;3.03;;
54372;SDS011;40271;48.798;10.178;2022-12-07T10:34:42;5.78;;;3.25;;
54372;SDS011;40271;48.798;10.178;2022-12-07T10:39:41;5.78;;;3.05;;
54372;SDS011;40271;48.798;10.178;2022-12-07T10:42:15;7.35;;;3.08;;
54372;SDS011;40271;48.798;10.178;2022-12-07T10:44:42;6.07;;;2.83;;
54372;SDS011;40271;48.798;10.178;2022-12-07T11:00:23;5.32;;;2.80;;
54372;SDS011;40271;48.798;10.178;2022-12-07T11:08:13;7.60;;;3.97;;
54372;SDS011;40271;48.798;10.178;2022-12-07T11:13:14;9.80;;;3.90;;
54372;SDS011;40271;48.798;10.178;2022-12-07T11:20:54;8.27;;;3.65;;
54372;SDS011;40271;48.798;10.178;2022-12-07T11:31:28;6.65;;;3.58;;
54372;SDS011;40271;48.798;10.178;2022-12-07T11:34:06;6.47;;;3.53;;
54372;SDS011;40271;48.798;10.178;2022-12-07T11:36:36;9.80;;;4.70;;
54372;SDS011;40271;48.798;10.178;2022-12-07T11:39:06;7.00;;;3.60;;
54372;SDS011;40271;48.798;10.178;2022-12-07T11:41:35;8.63;;;4.20;;
54372;SDS011;40271;48.798;10.178;2022-12-07T11:44:07;8.15;;;3.83;;
54372;SDS011;40271;48.798;10.178;2022-12-07T11:49:10;8.45;;;3.67;;
54372;SDS011;40271;48.798;10.178;2022-12-07T11:51:40;10.20;;;4.55;;
54372;SDS011;40271;48.798;10.178;2022-12-07T11:54:17;7.70;;;3.95;;
54372;SDS011;40271;48.798;10.178;2022-12-07T11:56:43;7.10;;;4.10;;
54372;SDS011;40271;48.798;10.178;2022-12-07T11:59:18;7.15;;;4.00;;
54372;SDS011;40271;48.798;10.178;2022-12-07T12:02:03;9.27;;;4.03;;
54372;SDS011;40271;48.798;10.178;2022-12-07T12:07:15;8.77;;;3.97;;
54372;SDS011;40271;48.798;10.178;2022-12-07T12:09:45;10.38;;;4.88;;
54372;SDS011;40271;48.798;10.178;2022-12-07T12:20:31;11.73;;;5.78;;
54372;SDS011;40271;48.798;10.178;2022-12-07T12:23:05;9.73;;;5.00;;
54372;SDS011;40271;48.798;10.178;2022-12-07T12:28:04;7.43;;;3.65;;
54372;SDS011;40271;48.798;10.178;2022-12-07T12:30:32;7.78;;;4.28;;
54372;SDS011;40271;48.798;10.178;2022-12-07T12:35:43;8.68;;;4.20;;
54372;SDS011;40271;48.798;10.178;2022-12-07T12:40:55;10.32;;;3.90;;
54372;SDS011;40271;48.798;10.178;2022-12-07T12:48:52;8.13;;;4.53;;
54372;SDS011;40271;48.798;10.178;2022-12-07T12:51:38;7.00;;;3.75;;
54372;SDS011;40271;48.798;10.178;2022-12-07T12:54:05;8.02;;;3.95;;
54372;SDS011;40271;48.798;10.178;2022-12-07T12:56:40;7.80;;;3.25;;
54372;SDS011;40271;48.798;10.178;2022-12-07T13:01:43;8.55;;;4.38;;
54372;SDS011;40271;48.798;10.178;2022-12-07T13:04:53;9.60;;;3.85;;
54372;SDS011;40271;48.798;10.178;2022-12-07T13:06:58;8.85;;;4.20;;
54372;SDS011;40271;48.798;10.178;2022-12-07T13:09:28;6.90;;;3.72;;
54372;SDS011;40271;48.798;10.178;2022-12-07T13:12:11;5.88;;;3.95;;
54372;SDS011;40271;48.798;10.178;2022-12-07T13:20:01;8.13;;;4.32;;
54372;SDS011;40271;48.798;10.178;2022-12-07T13:25:05;5.50;;;2.97;;
54372;SDS011;40271;48.798;10.178;2022-12-07T13:27:34;7.20;;;3.30;;
54372;SDS011;40271;48.798;10.178;2022-12-07T13:30:00;6.07;;;3.70;;
54372;SDS011;40271;48.798;10.178;2022-12-07T13:32:28;6.00;;;3.08;;
54372;SDS011;40271;48.798;10.178;2022-12-07T13:34:54;5.78;;;3.50;;
54372;SDS011;40271;48.798;10.178;2022-12-07T13:42:24;7.93;;;3.80;;
54372;SDS011;40271;48.798;10.178;2022-12-07T13:44:51;6.70;;;3.55;;
54372;SDS011;40271;48.798;10.178;2022-12-07T13:49:48;6.38;;;3.50;;
54372;SDS011;40271;48.798;10.178;2022-12-07T13:52:15;8.50;;;4.57;;
54372;SDS011;40271;48.798;10.178;2022-12-07T13:54:57;8.82;;;4.22;;
54372;SDS011;40271;48.798;10.178;2022-12-07T13:57:24;8.05;;;4.05;;
54372;SDS011;40271;48.798;10.178;2022-12-07T13:59:50;7.35;;;4.40;;
54372;SDS011;40271;48.798;10.178;2022-12-07T14:02:21;10.68;;;5.03;;
54372;SDS011;40271;48.798;10.178;2022-12-07T14:04:48;9.35;;;4.68;;
54372;SDS011;40271;48.798;10.178;2022-12-07T14:07:22;7.15;;;4.40;;
54372;SDS011;40271;48.798;10.178;2022-12-07T14:12:20;7.18;;;3.90;;
54372;SDS011;40271;48.798;10.178;2022-12-07T14:14:47;8.35;;;4.70;;
54372;SDS011;40271;48.798;10.178;2022-12-07T14:22:15;8.60;;;4.57;;
54372;SDS011;40271;48.798;10.178;2022-12-07T14:24:43;12.73;;;4.90;;
54372;SDS011;40271;48.798;10.178;2022-12-07T14:27:19;8.15;;;4.28;;
54372;SDS011;40271;48.798;10.178;2022-12-07T14:29:46;8.50;;;4.38;;
54372;SDS011;40271;48.798;10.178;2022-12-07T14:37:23;6.93;;;3.97;;
54372;SDS011;40271;48.798;10.178;2022-12-07T14:39:49;9.60;;;4.50;;
54372;SDS011;40271;48.798;10.178;2022-12-07T14:42:15;7.40;;;4.05;;
54372;SDS011;40271;48.798;10.178;2022-12-07T14:44:42;9.27;;;4.93;;
54372;SDS011;40271;48.798;10.178;2022-12-07T14:47:12;9.07;;;4.85;;
54372;SDS011;40271;48.798;10.178;2022-12-07T14:49:38;9.98;;;4.65;;
54372;SDS011;40271;48.798;10.178;2022-12-07T14:52:04;8.57;;;4.93;;
54372;SDS011;40271;48.798;10.178;2022-12-07T14:54:31;8.23;;;4.20;;
54372;SDS011;40271;48.798;10.178;2022-12-07T14:56:57;8.90;;;4.50;;
54372;SDS011;40271;48.798;10.178;2022-12-07T14:59:24;10.00;;;4.95;;
54372;SDS011;40271;48.798;10.178;2022-12-07T15:01:50;10.10;;;5.03;;
54372;SDS011;40271;48.798;10.178;2022-12-07T15:04:16;9.73;;;4.88;;
54372;SDS011;40271;48.798;10.178;2022-12-07T15:06:53;10.38;;;5.07;;
54372;SDS011;40271;48.798;10.178;2022-12-07T15:09:19;11.98;;;4.43;;
54372;SDS011;40271;48.798;10.178;2022-12-07T15:11:45;12.25;;;5.72;;
54372;SDS011;40271;48.798;10.178;2022-12-07T15:14:11;10.57;;;5.60;;
54372;SDS011;40271;48.798;10.178;2022-12-07T15:16:39;11.45;;;5.40;;
54372;SDS011;40271;48.798;10.178;2022-12-07T15:19:05;9.63;;;5.10;;
54372;SDS011;40271;48.798;10.178;2022-12-07T15:21:31;10.50;;;6.00;;
54372;SDS011;40271;48.798;10.178;2022-12-07T15:23:57;9.30;;;5.03;;
54372;SDS011;40271;48.798;10.178;2022-12-07T15:26:23;13.60;;;6.82;;
54372;SDS011;40271;48.798;10.178;2022-12-07T15:28:49;12.32;;;5.53;;
54372;SDS011;40271;48.798;10.178;2022-12-07T15:31:16;10.77;;;5.70;;
54372;SDS011;40271;48.798;10.178;2022-12-07T15:33:42;15.90;;;6.65;;
54372;SDS011;40271;48.798;10.178;2022-12-07T15:36:12;13.70;;;6.57;;
54372;SDS011;40271;48.798;10.178;2022-12-07T15:38:41;11.13;;;5.45;;
54372;SDS011;40271;48.798;10.178;2022-12-07T15:41:07;12.50;;;6.75;;
54372;SDS011;40271;48.798;10.178;2022-12-07T15:43:33;11.98;;;6.22;;
54372;SDS011;40271;48.798;10.178;2022-12-07T15:46:17;17.77;;;7.95;;
54372;SDS011;40271;48.798;10.178;2022-12-07T15:48:45;13.52;;;6.55;;
54372;SDS011;40271;48.798;10.178;2022-12-07T15:51:11;11.88;;;5.28;;
54372;SDS011;40271;48.798;10.178;2022-12-07T15:53:37;14.25;;;6.13;;
54372;SDS011;40271;48.798;10.178;2022-12-07T15:56:06;13.57;;;5.72;;
54372;SDS011;40271;48.798;10.178;2022-12-07T15:58:33;11.77;;;5.13;;
54372;SDS011;40271;48.798;10.178;2022-12-07T16:00:59;11.60;;;5.13;;
54372;SDS011;40271;48.798;10.178;2022-12-07T16:03:26;10.75;;;5.55;;
54372;SDS011;40271;48.798;10.178;2022-12-07T16:05:52;9.77;;;5.20;;
54372;SDS011;40271;48.798;10.178;2022-12-07T16:08:18;9.88;;;5.85;;
54372;SDS011;40271;48.798;10.178;2022-12-07T16:10:45;10.50;;;5.00;;
54372;SDS011;40271;48.798;10.178;2022-12-07T16:13:11;12.30;;;5.70;;
54372;SDS011;40271;48.798;10.178;2022-12-07T16:15:39;9.05;;;4.95;;
54372;SDS011;40271;48.798;10.178;2022-12-07T16:18:05;13.27;;;6.40;;
54372;SDS011;40271;48.798;10.178;2022-12-07T16:20:31;11.13;;;5.95;;
54372;SDS011;40271;48.798;10.178;2022-12-07T16:22:57;14.38;;;5.75;;
54372;SDS011;40271;48.798;10.178;2022-12-07T16:25:23;13.35;;;5.88;;
54372;SDS011;40271;48.798;10.178;2022-12-07T16:27:50;12.55;;;5.93;;
54372;SDS011;40271;48.798;10.178;2022-12-07T16:30:17;13.60;;;6.03;;
54372;SDS011;40271;48.798;10.178;2022-12-07T16:32:43;11.13;;;5.47;;
54372;SDS011;40271;48.798;10.178;2022-12-07T16:35:09;8.48;;;5.03;;
54372;SDS011;40271;48.798;10.178;2022-12-07T16:37:35;11.10;;;5.95;;
54372;SDS011;40271;48.798;10.178;2022-12-07T16:40:01;10.93;;;5.45;;
54372;SDS011;40271;48.798;10.178;2022-12-07T16:42:31;12.23;;;5.78;;
54372;SDS011;40271;48.798;10.178;2022-12-07T16:44:57;11.32;;;7.10;;
54372;SDS011;40271;48.798;10.178;2022-12-07T16:47:23;19.42;;;9.18;;
54372;SDS011;40271;48.798;10.178;2022-12-07T16:49:49;13.68;;;6.35;;
54372;SDS011;40271;48.798;10.178;2022-12-07T16:52:15;10.68;;;5.88;;